createdAt,value
2023-01-29T00:01:31.162Z,6.89
2023-01-29T00:07:15.251Z,6.88
2023-01-29T00:12:59.158Z,6.85
2023-01-29T00:18:43.469Z,6.83
2023-01-29T00:24:28.136Z,6.8
2023-01-29T00:30:13.327Z,6.79
2023-01-29T00:36:01.589Z,6.8
2023-01-29T00:41:45.650Z,6.75
2023-01-29T00:47:29.610Z,6.71
2023-01-29T00:53:13.541Z,6.67
2023-01-29T00:58:57.554Z,6.63
2023-01-29T01:04:44.685Z,6.63
2023-01-29T01:10:29.879Z,6.61
2023-01-29T01:16:15.700Z,6.59
2023-01-29T01:21:59.609Z,6.57
2023-01-29T01:27:43.504Z,6.54
2023-01-29T01:33:27.447Z,6.53
2023-01-29T01:39:11.405Z,6.49
2023-01-29T01:44:56.865Z,6.44
2023-01-29T01:50:43.022Z,6.46
2023-01-29T01:56:29.481Z,6.43
2023-01-29T02:02:14.015Z,6.41
2023-01-29T02:07:59.625Z,6.4
2023-01-29T02:13:44.194Z,6.39
2023-01-29T02:19:33.435Z,6.35
2023-01-29T02:25:37.837Z,6.31
2023-01-29T02:31:27.580Z,6.34
2023-01-29T02:37:13.612Z,6.33
2023-01-29T02:43:01.813Z,6.28
2023-01-29T02:48:50.954Z,6.25
2023-01-29T02:54:39.830Z,6.23
2023-01-29T03:00:25.557Z,6.23
2023-01-29T03:06:11.858Z,6.21
2023-01-29T03:11:58.267Z,6.18
2023-01-29T03:17:45.515Z,6.17
2023-01-29T03:23:31.735Z,6.14
2023-01-29T03:29:15.680Z,6.12
2023-01-29T03:35:03.458Z,6.09
2023-01-29T03:40:50.408Z,6.09
2023-01-29T03:46:37.935Z,6.08
2023-01-29T03:52:25.039Z,6.08
2023-01-29T03:58:13.812Z,6.04
2023-01-29T04:04:01.547Z,6.02
2023-01-29T04:09:48.458Z,6
2023-01-29T04:15:36.344Z,5.98
2023-01-29T04:21:35.230Z,5.97
2023-01-29T04:27:29.770Z,6
2023-01-29T04:33:27.092Z,6
2023-01-29T04:39:16.786Z,6
2023-01-29T04:45:05.126Z,5.96
2023-01-29T04:50:52.221Z,5.93
2023-01-29T04:56:41.006Z,5.93
2023-01-29T05:02:34.251Z,5.97
2023-01-29T05:08:20.019Z,5.96
2023-01-29T05:14:06.612Z,5.92
2023-01-29T05:19:50.401Z,5.93
2023-01-29T05:25:34.286Z,5.88
2023-01-29T05:31:18.148Z,5.85
2023-01-29T05:37:02.759Z,5.81
2023-01-29T05:42:46.633Z,5.78
2023-01-29T05:48:30.425Z,5.76
2023-01-29T05:54:15.163Z,5.74
2023-01-29T05:59:59.302Z,5.73
2023-01-29T06:05:43.506Z,5.73
2023-01-29T06:11:27.371Z,5.72
2023-01-29T06:17:11.453Z,5.71
2023-01-29T06:22:56.241Z,5.71
2023-01-29T06:28:39.994Z,5.69
2023-01-29T06:34:24.725Z,5.74
2023-01-29T06:40:15.311Z,5.73
2023-01-29T06:46:03.510Z,5.76
2023-01-29T06:51:47.435Z,5.74
2023-01-29T06:57:32.301Z,5.73
2023-01-29T07:03:16.405Z,5.77
2023-01-29T07:09:00.124Z,5.81
2023-01-29T07:14:43.949Z,5.79
2023-01-29T07:20:31.376Z,5.81
2023-01-29T07:26:15.636Z,5.84
2023-01-29T07:32:07.230Z,5.87
2023-01-29T07:38:03.929Z,5.94
2023-01-29T07:43:47.889Z,6.03
2023-01-29T07:49:31.591Z,6.07
2023-01-29T07:55:15.543Z,6.13
2023-01-29T08:00:59.368Z,6.21
2023-01-29T08:06:44.408Z,6.29
2023-01-29T08:12:29.437Z,6.37
2023-01-29T08:18:25.549Z,6.44
2023-01-29T08:24:09.784Z,6.56
2023-01-29T08:29:53.327Z,6.61
2023-01-29T08:35:37.490Z,6.7
2023-01-29T08:41:21.237Z,6.54
2023-01-29T08:47:05.092Z,6.58
2023-01-29T08:52:49.013Z,6.71
2023-01-29T08:58:32.748Z,6.82
2023-01-29T09:04:16.582Z,6.95
2023-01-29T09:10:00.320Z,7.05
2023-01-29T09:15:47.120Z,7.21
2023-01-29T09:21:30.842Z,7.31
2023-01-29T09:27:14.522Z,7.4
2023-01-29T09:32:59.941Z,7.61
2023-01-29T09:38:49.038Z,7.75
2023-01-29T09:44:42.510Z,7.92
2023-01-29T09:50:28.066Z,8.1
2023-01-29T09:56:14.365Z,8.17
2023-01-29T10:02:02.456Z,8.22
2023-01-29T10:07:54.255Z,8.36
2023-01-29T10:13:44.659Z,8.52
2023-01-29T10:19:44.385Z,8.68
2023-01-29T10:25:28.362Z,8.91
2023-01-29T10:31:19.695Z,8.98
2023-01-29T10:37:06.461Z,9.22
2023-01-29T10:42:55.271Z,9.42
2023-01-29T10:48:42.811Z,9.56
2023-01-29T10:54:35.154Z,9.73
2023-01-29T11:00:21.815Z,9.86
2023-01-29T11:06:09.012Z,9.99
2023-01-29T11:11:54.412Z,10.09
2023-01-29T11:17:38.529Z,10.19
2023-01-29T11:23:33.241Z,10.24
2023-01-29T11:29:40.498Z,10.34
2023-01-29T11:35:25.720Z,10.54
2023-01-29T11:41:15.195Z,10.57
2023-01-29T11:47:04.415Z,10.64
2023-01-29T11:52:51.845Z,10.72
2023-01-29T11:58:36.021Z,10.81
2023-01-29T12:04:22.868Z,10.92
2023-01-29T12:10:14.149Z,11.02
2023-01-29T12:16:12.567Z,11.05
2023-01-29T12:22:10.778Z,11.11
2023-01-29T12:27:57.580Z,11.21
2023-01-29T12:33:46.355Z,11.26
2023-01-29T12:39:30.213Z,11.32
2023-01-29T12:45:16.448Z,11.38
2023-01-29T12:51:04.693Z,11.4
2023-01-29T12:56:49.596Z,11.46
2023-01-29T13:02:39.229Z,11.45
2023-01-29T13:08:26.646Z,11.54
2023-01-29T13:14:13.899Z,11.48
2023-01-29T13:20:00.578Z,11.5
2023-01-29T13:25:44.392Z,11.5
2023-01-29T13:31:36.689Z,11.47
2023-01-29T13:37:24.489Z,11.48
2023-01-29T13:43:14.652Z,11.43
2023-01-29T13:48:58.716Z,11.37
2023-01-29T13:54:47.794Z,11.29
2023-01-29T14:00:51.547Z,11.27
2023-01-29T14:06:52.221Z,11.27
2023-01-29T14:12:41.081Z,11.27
2023-01-29T14:18:45.066Z,11.26
2023-01-29T14:24:34.182Z,11.27
2023-01-29T14:30:18.765Z,11.24
2023-01-29T14:36:04.381Z,11.18
2023-01-29T14:41:49.598Z,11.11
2023-01-29T14:47:44.714Z,11.05
2023-01-29T14:53:53.197Z,11.05
2023-01-29T14:59:38.613Z,11.05
2023-01-29T15:05:24.602Z,10.96
2023-01-29T15:11:13.658Z,10.88
2023-01-29T15:17:08.593Z,10.81
2023-01-29T15:22:52.621Z,10.76
2023-01-29T15:28:39.383Z,10.69
2023-01-29T15:34:28.641Z,10.62
2023-01-29T15:40:16.975Z,10.55
2023-01-29T15:46:02.041Z,10.49
2023-01-29T15:51:46.232Z,10.44
2023-01-29T15:57:32.689Z,10.39
2023-01-29T16:03:21.811Z,10.35
2023-01-29T16:09:07.113Z,10.26
2023-01-29T16:14:53.096Z,10.2
2023-01-29T16:20:40.510Z,10.13
2023-01-29T16:26:26.448Z,10.07
2023-01-29T16:32:10.952Z,10.03
2023-01-29T16:37:58.867Z,9.97
2023-01-29T16:43:56.167Z,9.9
2023-01-29T16:49:53.624Z,9.87
2023-01-29T16:55:39.265Z,9.86
2023-01-29T17:01:24.434Z,9.79
2023-01-29T17:07:13.575Z,9.74
2023-01-29T17:13:00.838Z,9.68
2023-01-29T17:18:44.790Z,9.63
2023-01-29T17:24:28.451Z,9.57
2023-01-29T17:30:14.333Z,9.53
2023-01-29T17:35:58.214Z,9.54
2023-01-29T17:41:42.821Z,9.48
2023-01-29T17:47:30.501Z,9.47
2023-01-29T17:53:14.604Z,9.81
2023-01-29T17:58:58.586Z,10.06
2023-01-29T18:04:43.877Z,9.8
2023-01-29T18:10:31.275Z,9.63
2023-01-29T18:16:15.320Z,9.52
2023-01-29T18:21:59.941Z,9.45
2023-01-29T18:27:45.321Z,9.42
2023-01-29T18:33:29.152Z,9.41
2023-01-29T18:39:13.721Z,9.38
2023-01-29T18:44:57.610Z,9.36
2023-01-29T18:50:41.592Z,9.34
2023-01-29T18:56:25.515Z,9.31
2023-01-29T19:02:11.265Z,9.3
2023-01-29T19:07:55.367Z,9.28
2023-01-29T19:13:39.799Z,9.26
2023-01-29T19:19:23.647Z,9.25
2023-01-29T19:25:08.516Z,9.25
2023-01-29T19:30:52.487Z,9.23
2023-01-29T19:36:36.581Z,9.23
2023-01-29T19:42:20.544Z,9.21
2023-01-29T19:48:04.564Z,9.2
2023-01-29T19:53:49.393Z,9.2
2023-01-29T19:59:33.347Z,9.19
2023-01-29T20:05:17.600Z,9.18
2023-01-29T20:11:02.740Z,9.17
2023-01-29T20:16:46.536Z,9.15
2023-01-29T20:22:30.337Z,9.15
2023-01-29T20:28:15.101Z,9.14
2023-01-29T20:33:58.898Z,9.16
2023-01-29T20:39:42.698Z,9.15
2023-01-29T20:45:27.600Z,9.14
2023-01-29T20:51:12.316Z,9.14
2023-01-29T20:56:56.142Z,9.13
2023-01-29T21:02:40.487Z,9.14
2023-01-29T21:08:24.638Z,9.12
2023-01-29T21:14:08.671Z,9.11
2023-01-29T21:19:52.618Z,9.11
2023-01-29T21:25:36.789Z,9.12
2023-01-29T21:31:22.923Z,9.12
2023-01-29T21:37:07.146Z,9.11
2023-01-29T21:42:51.198Z,9.09
2023-01-29T21:48:35.967Z,9.09
2023-01-29T21:54:20.038Z,9.08
2023-01-29T22:00:05.801Z,9.07
2023-01-29T22:05:49.987Z,9.09
2023-01-29T22:11:33.987Z,9.06
2023-01-29T22:17:18.398Z,9.07
2023-01-29T22:23:02.917Z,9.09
2023-01-29T22:28:47.078Z,9.08
2023-01-29T22:34:30.987Z,9.1
2023-01-29T22:40:15.599Z,9.08
2023-01-29T22:46:00.971Z,9.09
2023-01-29T22:51:45.020Z,9.1
2023-01-29T22:57:28.932Z,9.11
2023-01-29T23:03:13.050Z,9.12
2023-01-29T23:08:56.973Z,9.14
2023-01-29T23:14:40.931Z,9.12
2023-01-29T23:20:24.983Z,9.13
2023-01-29T23:26:10.066Z,9.13
2023-01-29T23:31:54.072Z,9.14
2023-01-29T23:37:37.952Z,9.15
2023-01-29T23:43:23.512Z,9.15
2023-01-29T23:49:07.238Z,9.16
2023-01-29T23:54:51.037Z,9.16
